sensor_id;sensor_type;location;lat;lon;timestamp;P1;durP1;ratioP1;P2;durP2;ratioP2
23561;SDS011;11959;49.418;8.728;2022-12-10T00:01:12;14.73;;;9.43;;
23561;SDS011;11959;49.418;8.728;2022-12-10T00:03:40;22.42;;;15.05;;
23561;SDS011;11959;49.418;8.728;2022-12-10T00:06:07;32.38;;;18.42;;
23561;SDS011;11959;49.418;8.728;2022-12-10T00:08:35;20.10;;;13.13;;
23561;SDS011;11959;49.418;8.728;2022-12-10T00:11:05;15.40;;;10.23;;
23561;SDS011;11959;49.418;8.728;2022-12-10T00:13:33;15.45;;;9.95;;
23561;SDS011;11959;49.418;8.728;2022-12-10T00:16:00;15.65;;;10.00;;
23561;SDS011;11959;49.418;8.728;2022-12-10T00:18:30;15.90;;;9.60;;
23561;SDS011;11959;49.418;8.728;2022-12-10T00:20:56;15.20;;;9.18;;
23561;SDS011;11959;49.418;8.728;2022-12-10T00:23:22;15.40;;;9.38;;
23561;SDS011;11959;49.418;8.728;2022-12-10T00:25:48;14.00;;;9.63;;
23561;SDS011;11959;49.418;8.728;2022-12-10T00:28:14;15.80;;;8.95;;
23561;SDS011;11959;49.418;8.728;2022-12-10T00:30:39;14.63;;;9.60;;
23561;SDS011;11959;49.418;8.728;2022-12-10T00:33:05;18.67;;;10.20;;
23561;SDS011;11959;49.418;8.728;2022-12-10T00:35:30;17.08;;;10.23;;
23561;SDS011;11959;49.418;8.728;2022-12-10T00:37:59;16.55;;;10.45;;
23561;SDS011;11959;49.418;8.728;2022-12-10T00:40:25;15.07;;;10.00;;
23561;SDS011;11959;49.418;8.728;2022-12-10T00:42:51;15.80;;;10.07;;
23561;SDS011;11959;49.418;8.728;2022-12-10T00:45:16;15.75;;;9.88;;
23561;SDS011;11959;49.418;8.728;2022-12-10T00:47:42;15.65;;;9.38;;
23561;SDS011;11959;49.418;8.728;2022-12-10T00:50:08;15.77;;;9.88;;
23561;SDS011;11959;49.418;8.728;2022-12-10T00:52:33;18.98;;;10.43;;
23561;SDS011;11959;49.418;8.728;2022-12-10T00:54:59;16.48;;;9.60;;
23561;SDS011;11959;49.418;8.728;2022-12-10T00:57:24;14.13;;;9.80;;
23561;SDS011;11959;49.418;8.728;2022-12-10T00:59:50;17.52;;;10.23;;
23561;SDS011;11959;49.418;8.728;2022-12-10T01:02:16;18.63;;;10.77;;
23561;SDS011;11959;49.418;8.728;2022-12-10T01:04:41;17.30;;;10.43;;
23561;SDS011;11959;49.418;8.728;2022-12-10T01:07:07;18.63;;;10.98;;
23561;SDS011;11959;49.418;8.728;2022-12-10T01:09:33;17.92;;;10.57;;
23561;SDS011;11959;49.418;8.728;2022-12-10T01:12:01;17.50;;;10.25;;
23561;SDS011;11959;49.418;8.728;2022-12-10T01:14:31;18.40;;;11.00;;
23561;SDS011;11959;49.418;8.728;2022-12-10T01:17:00;17.05;;;10.73;;
23561;SDS011;11959;49.418;8.728;2022-12-10T01:19:27;17.15;;;10.23;;
23561;SDS011;11959;49.418;8.728;2022-12-10T01:21:54;23.98;;;12.45;;
23561;SDS011;11959;49.418;8.728;2022-12-10T01:24:21;24.75;;;11.10;;
23561;SDS011;11959;49.418;8.728;2022-12-10T01:26:47;20.25;;;11.38;;
23561;SDS011;11959;49.418;8.728;2022-12-10T01:29:13;18.27;;;11.15;;
23561;SDS011;11959;49.418;8.728;2022-12-10T01:31:39;16.25;;;10.77;;
23561;SDS011;11959;49.418;8.728;2022-12-10T01:34:07;15.75;;;10.02;;
23561;SDS011;11959;49.418;8.728;2022-12-10T01:36:37;17.35;;;10.65;;
23561;SDS011;11959;49.418;8.728;2022-12-10T01:39:05;15.57;;;9.50;;
23561;SDS011;11959;49.418;8.728;2022-12-10T01:41:34;15.68;;;9.57;;
23561;SDS011;11959;49.418;8.728;2022-12-10T01:44:56;14.15;;;8.88;;
23561;SDS011;11959;49.418;8.728;2022-12-10T01:46:49;15.40;;;8.80;;
23561;SDS011;11959;49.418;8.728;2022-12-10T01:49:18;14.93;;;9.02;;
23561;SDS011;11959;49.418;8.728;2022-12-10T01:51:44;14.65;;;9.23;;
23561;SDS011;11959;49.418;8.728;2022-12-10T01:54:14;15.70;;;9.27;;
23561;SDS011;11959;49.418;8.728;2022-12-10T01:56:43;16.42;;;10.05;;
23561;SDS011;11959;49.418;8.728;2022-12-10T01:59:12;16.08;;;9.70;;
23561;SDS011;11959;49.418;8.728;2022-12-10T02:01:41;14.75;;;9.27;;
23561;SDS011;11959;49.418;8.728;2022-12-10T02:04:18;14.38;;;9.20;;
23561;SDS011;11959;49.418;8.728;2022-12-10T02:06:58;14.55;;;9.55;;
23561;SDS011;11959;49.418;8.728;2022-12-10T02:09:32;15.45;;;9.27;;
23561;SDS011;11959;49.418;8.728;2022-12-10T02:15:17;13.73;;;8.50;;
23561;SDS011;11959;49.418;8.728;2022-12-10T02:17:53;13.52;;;9.00;;
23561;SDS011;11959;49.418;8.728;2022-12-10T02:20:24;14.52;;;8.80;;
23561;SDS011;11959;49.418;8.728;2022-12-10T02:22:57;14.03;;;8.53;;
23561;SDS011;11959;49.418;8.728;2022-12-10T02:25:50;16.65;;;10.35;;
23561;SDS011;11959;49.418;8.728;2022-12-10T02:28:24;15.13;;;9.00;;
23561;SDS011;11959;49.418;8.728;2022-12-10T02:30:55;14.65;;;9.15;;
23561;SDS011;11959;49.418;8.728;2022-12-10T02:33:23;15.13;;;9.30;;
23561;SDS011;11959;49.418;8.728;2022-12-10T02:35:50;16.23;;;10.23;;
23561;SDS011;11959;49.418;8.728;2022-12-10T02:38:26;16.27;;;9.98;;
23561;SDS011;11959;49.418;8.728;2022-12-10T02:40:57;15.20;;;9.90;;
23561;SDS011;11959;49.418;8.728;2022-12-10T02:43:31;15.25;;;9.57;;
23561;SDS011;11959;49.418;8.728;2022-12-10T02:45:58;16.60;;;9.80;;
23561;SDS011;11959;49.418;8.728;2022-12-10T02:48:27;14.15;;;8.63;;
23561;SDS011;11959;49.418;8.728;2022-12-10T02:50:53;15.75;;;9.23;;
23561;SDS011;11959;49.418;8.728;2022-12-10T02:53:19;14.35;;;9.07;;
23561;SDS011;11959;49.418;8.728;2022-12-10T03:04:11;14.48;;;8.85;;
23561;SDS011;11959;49.418;8.728;2022-12-10T03:07:25;14.75;;;9.13;;
23561;SDS011;11959;49.418;8.728;2022-12-10T03:09:40;15.50;;;9.50;;
23561;SDS011;11959;49.418;8.728;2022-12-10T03:12:19;14.95;;;8.98;;
23561;SDS011;11959;49.418;8.728;2022-12-10T03:15:04;15.63;;;9.32;;
23561;SDS011;11959;49.418;8.728;2022-12-10T03:17:33;13.95;;;9.18;;
23561;SDS011;11959;49.418;8.728;2022-12-10T03:19:59;13.45;;;9.35;;
23561;SDS011;11959;49.418;8.728;2022-12-10T03:22:27;15.88;;;9.20;;
23561;SDS011;11959;49.418;8.728;2022-12-10T03:24:54;15.70;;;8.40;;
23561;SDS011;11959;49.418;8.728;2022-12-10T03:27:23;15.60;;;9.07;;
23561;SDS011;11959;49.418;8.728;2022-12-10T03:29:50;15.43;;;9.75;;
23561;SDS011;11959;49.418;8.728;2022-12-10T03:32:18;14.20;;;9.63;;
23561;SDS011;11959;49.418;8.728;2022-12-10T03:34:47;14.43;;;9.15;;
23561;SDS011;11959;49.418;8.728;2022-12-10T03:37:16;15.02;;;9.98;;
23561;SDS011;11959;49.418;8.728;2022-12-10T03:39:42;14.38;;;9.43;;
23561;SDS011;11959;49.418;8.728;2022-12-10T03:42:08;14.38;;;8.90;;
23561;SDS011;11959;49.418;8.728;2022-12-10T03:44:35;14.00;;;9.00;;
23561;SDS011;11959;49.418;8.728;2022-12-10T03:47:04;13.48;;;8.55;;
23561;SDS011;11959;49.418;8.728;2022-12-10T03:49:31;15.13;;;9.48;;
23561;SDS011;11959;49.418;8.728;2022-12-10T03:51:57;14.75;;;8.50;;
23561;SDS011;11959;49.418;8.728;2022-12-10T03:54:22;14.90;;;8.88;;
23561;SDS011;11959;49.418;8.728;2022-12-10T03:56:48;17.08;;;10.25;;
23561;SDS011;11959;49.418;8.728;2022-12-10T03:59:14;18.30;;;11.25;;
23561;SDS011;11959;49.418;8.728;2022-12-10T04:01:40;18.58;;;11.38;;
23561;SDS011;11959;49.418;8.728;2022-12-10T04:04:05;20.45;;;12.75;;
23561;SDS011;11959;49.418;8.728;2022-12-10T04:06:31;19.70;;;12.25;;
23561;SDS011;11959;49.418;8.728;2022-12-10T04:08:57;19.33;;;12.23;;
23561;SDS011;11959;49.418;8.728;2022-12-10T04:11:23;21.42;;;12.23;;
23561;SDS011;11959;49.418;8.728;2022-12-10T04:13:48;21.58;;;12.25;;
23561;SDS011;11959;49.418;8.728;2022-12-10T04:16:34;18.63;;;11.35;;
23561;SDS011;11959;49.418;8.728;2022-12-10T04:19:02;18.10;;;11.13;;
23561;SDS011;11959;49.418;8.728;2022-12-10T04:21:32;18.25;;;11.05;;
23561;SDS011;11959;49.418;8.728;2022-12-10T04:24:18;17.90;;;11.55;;
23561;SDS011;11959;49.418;8.728;2022-12-10T04:27:15;20.88;;;12.10;;
23561;SDS011;11959;49.418;8.728;2022-12-10T04:29:51;20.25;;;12.30;;
23561;SDS011;11959;49.418;8.728;2022-12-10T04:32:18;17.30;;;11.73;;
23561;SDS011;11959;49.418;8.728;2022-12-10T04:34:44;17.70;;;11.05;;
23561;SDS011;11959;49.418;8.728;2022-12-10T04:37:10;16.40;;;9.88;;
23561;SDS011;11959;49.418;8.728;2022-12-10T04:39:37;21.42;;;11.68;;
23561;SDS011;11959;49.418;8.728;2022-12-10T04:42:03;19.27;;;10.20;;
23561;SDS011;11959;49.418;8.728;2022-12-10T04:44:29;18.80;;;10.70;;
23561;SDS011;11959;49.418;8.728;2022-12-10T04:46:55;16.30;;;10.20;;
23561;SDS011;11959;49.418;8.728;2022-12-10T04:49:20;17.25;;;10.45;;
23561;SDS011;11959;49.418;8.728;2022-12-10T04:51:46;17.60;;;11.00;;
23561;SDS011;11959;49.418;8.728;2022-12-10T04:54:13;14.82;;;9.52;;
23561;SDS011;11959;49.418;8.728;2022-12-10T04:56:39;17.13;;;9.68;;
23561;SDS011;11959;49.418;8.728;2022-12-10T04:59:05;17.65;;;10.07;;
23561;SDS011;11959;49.418;8.728;2022-12-10T05:01:31;15.38;;;9.13;;
23561;SDS011;11959;49.418;8.728;2022-12-10T05:03:58;14.60;;;8.82;;
23561;SDS011;11959;49.418;8.728;2022-12-10T05:06:25;15.55;;;9.88;;
23561;SDS011;11959;49.418;8.728;2022-12-10T05:08:51;15.85;;;9.45;;
23561;SDS011;11959;49.418;8.728;2022-12-10T05:11:19;15.60;;;9.13;;
23561;SDS011;11959;49.418;8.728;2022-12-10T05:13:46;17.67;;;10.63;;
23561;SDS011;11959;49.418;8.728;2022-12-10T05:16:13;19.70;;;10.85;;
23561;SDS011;11959;49.418;8.728;2022-12-10T05:18:44;19.00;;;11.25;;
23561;SDS011;11959;49.418;8.728;2022-12-10T05:21:10;17.48;;;10.75;;
23561;SDS011;11959;49.418;8.728;2022-12-10T05:23:39;21.20;;;13.23;;
23561;SDS011;11959;49.418;8.728;2022-12-10T05:26:08;21.60;;;12.70;;
23561;SDS011;11959;49.418;8.728;2022-12-10T05:28:35;21.27;;;13.15;;
23561;SDS011;11959;49.418;8.728;2022-12-10T05:31:05;20.63;;;12.95;;
23561;SDS011;11959;49.418;8.728;2022-12-10T05:33:36;22.60;;;13.77;;
23561;SDS011;11959;49.418;8.728;2022-12-10T05:36:02;23.65;;;13.85;;
23561;SDS011;11959;49.418;8.728;2022-12-10T05:38:30;22.05;;;13.57;;
23561;SDS011;11959;49.418;8.728;2022-12-10T05:41:00;25.75;;;14.02;;
23561;SDS011;11959;49.418;8.728;2022-12-10T05:43:31;22.00;;;14.02;;
23561;SDS011;11959;49.418;8.728;2022-12-10T05:46:03;20.05;;;12.75;;
23561;SDS011;11959;49.418;8.728;2022-12-10T05:48:31;21.77;;;13.10;;
23561;SDS011;11959;49.418;8.728;2022-12-10T05:51:02;19.40;;;11.20;;
23561;SDS011;11959;49.418;8.728;2022-12-10T05:53:29;16.98;;;10.43;;
23561;SDS011;11959;49.418;8.728;2022-12-10T05:55:59;17.85;;;11.15;;
23561;SDS011;11959;49.418;8.728;2022-12-10T05:58:29;18.58;;;11.32;;
23561;SDS011;11959;49.418;8.728;2022-12-10T06:00:55;18.15;;;11.15;;
23561;SDS011;11959;49.418;8.728;2022-12-10T06:03:21;17.70;;;10.88;;
23561;SDS011;11959;49.418;8.728;2022-12-10T06:05:47;16.92;;;11.18;;
23561;SDS011;11959;49.418;8.728;2022-12-10T06:08:13;20.38;;;11.52;;
23561;SDS011;11959;49.418;8.728;2022-12-10T06:10:39;18.08;;;11.15;;
23561;SDS011;11959;49.418;8.728;2022-12-10T06:13:04;17.25;;;10.38;;
23561;SDS011;11959;49.418;8.728;2022-12-10T06:15:30;17.40;;;11.15;;
23561;SDS011;11959;49.418;8.728;2022-12-10T06:17:57;18.95;;;11.55;;
23561;SDS011;11959;49.418;8.728;2022-12-10T06:20:24;17.35;;;10.40;;
23561;SDS011;11959;49.418;8.728;2022-12-10T06:22:50;17.25;;;11.25;;
23561;SDS011;11959;49.418;8.728;2022-12-10T06:25:16;18.45;;;10.90;;
23561;SDS011;11959;49.418;8.728;2022-12-10T06:27:42;17.30;;;10.77;;
23561;SDS011;11959;49.418;8.728;2022-12-10T06:30:08;18.00;;;10.90;;
23561;SDS011;11959;49.418;8.728;2022-12-10T06:32:34;17.90;;;11.55;;
23561;SDS011;11959;49.418;8.728;2022-12-10T06:35:00;20.55;;;11.07;;
23561;SDS011;11959;49.418;8.728;2022-12-10T06:37:26;18.40;;;11.57;;
23561;SDS011;11959;49.418;8.728;2022-12-10T06:39:52;15.88;;;10.95;;
23561;SDS011;11959;49.418;8.728;2022-12-10T06:42:21;17.40;;;11.02;;
23561;SDS011;11959;49.418;8.728;2022-12-10T06:44:46;16.58;;;10.57;;
23561;SDS011;11959;49.418;8.728;2022-12-10T06:47:12;17.00;;;10.90;;
23561;SDS011;11959;49.418;8.728;2022-12-10T06:49:39;17.35;;;10.73;;
23561;SDS011;11959;49.418;8.728;2022-12-10T06:52:05;15.85;;;9.73;;
23561;SDS011;11959;49.418;8.728;2022-12-10T06:54:31;17.75;;;11.15;;
23561;SDS011;11959;49.418;8.728;2022-12-10T06:56:57;19.30;;;11.10;;
23561;SDS011;11959;49.418;8.728;2022-12-10T06:59:22;15.15;;;9.85;;
23561;SDS011;11959;49.418;8.728;2022-12-10T07:01:48;16.23;;;10.63;;
23561;SDS011;11959;49.418;8.728;2022-12-10T07:04:14;18.38;;;11.07;;
23561;SDS011;11959;49.418;8.728;2022-12-10T07:06:40;17.02;;;10.75;;
23561;SDS011;11959;49.418;8.728;2022-12-10T07:09:06;15.13;;;9.93;;
23561;SDS011;11959;49.418;8.728;2022-12-10T07:11:31;19.02;;;11.38;;
23561;SDS011;11959;49.418;8.728;2022-12-10T07:13:57;17.50;;;9.88;;
23561;SDS011;11959;49.418;8.728;2022-12-10T07:16:24;18.40;;;11.15;;
23561;SDS011;11959;49.418;8.728;2022-12-10T07:18:52;15.82;;;10.70;;
23561;SDS011;11959;49.418;8.728;2022-12-10T07:21:20;18.08;;;11.20;;
23561;SDS011;11959;49.418;8.728;2022-12-10T07:23:49;18.70;;;10.88;;
23561;SDS011;11959;49.418;8.728;2022-12-10T07:26:16;19.77;;;11.18;;
23561;SDS011;11959;49.418;8.728;2022-12-10T07:28:42;16.17;;;10.32;;
23561;SDS011;11959;49.418;8.728;2022-12-10T07:31:08;16.77;;;10.55;;
23561;SDS011;11959;49.418;8.728;2022-12-10T07:33:34;17.58;;;11.50;;
23561;SDS011;11959;49.418;8.728;2022-12-10T07:36:19;17.25;;;11.00;;
23561;SDS011;11959;49.418;8.728;2022-12-10T07:38:47;18.13;;;11.52;;
23561;SDS011;11959;49.418;8.728;2022-12-10T07:41:14;17.98;;;10.90;;
23561;SDS011;11959;49.418;8.728;2022-12-10T07:43:41;18.95;;;11.73;;
23561;SDS011;11959;49.418;8.728;2022-12-10T07:46:13;16.55;;;10.70;;
23561;SDS011;11959;49.418;8.728;2022-12-10T07:48:42;18.50;;;10.88;;
23561;SDS011;11959;49.418;8.728;2022-12-10T07:51:08;15.80;;;10.25;;
23561;SDS011;11959;49.418;8.728;2022-12-10T07:53:34;16.73;;;10.43;;
23561;SDS011;11959;49.418;8.728;2022-12-10T07:56:01;17.85;;;10.82;;
23561;SDS011;11959;49.418;8.728;2022-12-10T07:58:27;21.75;;;13.43;;
23561;SDS011;11959;49.418;8.728;2022-12-10T08:00:53;19.73;;;12.02;;
23561;SDS011;11959;49.418;8.728;2022-12-10T08:03:19;25.00;;;14.65;;
23561;SDS011;11959;49.418;8.728;2022-12-10T08:05:44;29.65;;;16.83;;
23561;SDS011;11959;49.418;8.728;2022-12-10T08:08:10;28.42;;;16.17;;
23561;SDS011;11959;49.418;8.728;2022-12-10T08:10:36;31.05;;;17.20;;
23561;SDS011;11959;49.418;8.728;2022-12-10T08:13:03;27.77;;;16.67;;
23561;SDS011;11959;49.418;8.728;2022-12-10T08:15:30;28.35;;;16.63;;
23561;SDS011;11959;49.418;8.728;2022-12-10T08:17:56;30.30;;;17.45;;
23561;SDS011;11959;49.418;8.728;2022-12-10T08:20:22;30.80;;;17.73;;
23561;SDS011;11959;49.418;8.728;2022-12-10T08:22:48;34.00;;;18.30;;
23561;SDS011;11959;49.418;8.728;2022-12-10T08:25:14;33.72;;;18.85;;
23561;SDS011;11959;49.418;8.728;2022-12-10T08:27:40;31.55;;;17.52;;
23561;SDS011;11959;49.418;8.728;2022-12-10T08:30:06;28.73;;;17.20;;
23561;SDS011;11959;49.418;8.728;2022-12-10T08:32:32;29.42;;;16.50;;
23561;SDS011;11959;49.418;8.728;2022-12-10T08:34:57;31.52;;;16.70;;
23561;SDS011;11959;49.418;8.728;2022-12-10T08:37:23;29.60;;;16.80;;
23561;SDS011;11959;49.418;8.728;2022-12-10T08:39:49;29.75;;;16.33;;
23561;SDS011;11959;49.418;8.728;2022-12-10T08:42:14;27.05;;;16.13;;
23561;SDS011;11959;49.418;8.728;2022-12-10T08:44:40;31.15;;;17.52;;
23561;SDS011;11959;49.418;8.728;2022-12-10T08:47:06;30.10;;;17.13;;
23561;SDS011;11959;49.418;8.728;2022-12-10T08:49:31;30.98;;;17.50;;
23561;SDS011;11959;49.418;8.728;2022-12-10T08:51:57;28.33;;;16.27;;
23561;SDS011;11959;49.418;8.728;2022-12-10T08:54:23;30.60;;;17.13;;
23561;SDS011;11959;49.418;8.728;2022-12-10T08:56:49;29.33;;;17.35;;
23561;SDS011;11959;49.418;8.728;2022-12-10T08:59:14;32.63;;;17.13;;
23561;SDS011;11959;49.418;8.728;2022-12-10T09:01:40;28.70;;;16.67;;
23561;SDS011;11959;49.418;8.728;2022-12-10T09:04:06;29.95;;;17.38;;
23561;SDS011;11959;49.418;8.728;2022-12-10T09:06:31;28.15;;;15.50;;
23561;SDS011;11959;49.418;8.728;2022-12-10T09:08:57;29.00;;;16.35;;
23561;SDS011;11959;49.418;8.728;2022-12-10T09:11:24;29.60;;;16.80;;
23561;SDS011;11959;49.418;8.728;2022-12-10T09:13:55;26.95;;;15.85;;
23561;SDS011;11959;49.418;8.728;2022-12-10T09:16:21;30.15;;;16.20;;
23561;SDS011;11959;49.418;8.728;2022-12-10T09:18:56;25.83;;;15.60;;
23561;SDS011;11959;49.418;8.728;2022-12-10T09:21:22;27.45;;;14.80;;
23561;SDS011;11959;49.418;8.728;2022-12-10T09:23:49;29.42;;;16.77;;
23561;SDS011;11959;49.418;8.728;2022-12-10T09:26:17;27.92;;;16.25;;
23561;SDS011;11959;49.418;8.728;2022-12-10T09:28:43;28.05;;;15.38;;
23561;SDS011;11959;49.418;8.728;2022-12-10T09:31:10;27.35;;;15.32;;
23561;SDS011;11959;49.418;8.728;2022-12-10T09:33:37;28.42;;;16.15;;
23561;SDS011;11959;49.418;8.728;2022-12-10T09:36:04;27.23;;;17.08;;
23561;SDS011;11959;49.418;8.728;2022-12-10T09:38:33;28.13;;;15.55;;
23561;SDS011;11959;49.418;8.728;2022-12-10T09:41:00;31.23;;;17.38;;
23561;SDS011;11959;49.418;8.728;2022-12-10T09:51:22;29.42;;;16.40;;
23561;SDS011;11959;49.418;8.728;2022-12-10T09:53:51;31.05;;;16.75;;
23561;SDS011;11959;49.418;8.728;2022-12-10T09:58:52;32.95;;;17.60;;
23561;SDS011;11959;49.418;8.728;2022-12-10T10:01:18;69.88;;;28.98;;
23561;SDS011;11959;49.418;8.728;2022-12-10T10:03:47;51.13;;;24.48;;
23561;SDS011;11959;49.418;8.728;2022-12-10T10:06:13;55.67;;;24.75;;
23561;SDS011;11959;49.418;8.728;2022-12-10T10:08:47;55.55;;;25.70;;
23561;SDS011;11959;49.418;8.728;2022-12-10T10:11:21;72.28;;;31.40;;
23561;SDS011;11959;49.418;8.728;2022-12-10T10:14:06;41.63;;;21.00;;
23561;SDS011;11959;49.418;8.728;2022-12-10T10:16:36;28.92;;;16.83;;
23561;SDS011;11959;49.418;8.728;2022-12-10T10:19:14;28.45;;;16.08;;
23561;SDS011;11959;49.418;8.728;2022-12-10T10:21:43;24.05;;;13.93;;
23561;SDS011;11959;49.418;8.728;2022-12-10T10:24:18;26.80;;;14.32;;
23561;SDS011;11959;49.418;8.728;2022-12-10T10:26:47;26.83;;;15.25;;
23561;SDS011;11959;49.418;8.728;2022-12-10T10:29:14;26.23;;;14.07;;
23561;SDS011;11959;49.418;8.728;2022-12-10T10:31:43;26.85;;;15.23;;
23561;SDS011;11959;49.418;8.728;2022-12-10T10:34:20;29.50;;;15.60;;
23561;SDS011;11959;49.418;8.728;2022-12-10T10:36:47;27.25;;;14.88;;
23561;SDS011;11959;49.418;8.728;2022-12-10T10:39:31;30.27;;;16.73;;
23561;SDS011;11959;49.418;8.728;2022-12-10T10:42:08;30.25;;;16.73;;
23561;SDS011;11959;49.418;8.728;2022-12-10T10:44:35;28.05;;;15.63;;
23561;SDS011;11959;49.418;8.728;2022-12-10T10:47:23;30.90;;;16.77;;
23561;SDS011;11959;49.418;8.728;2022-12-10T10:49:58;27.95;;;15.85;;
23561;SDS011;11959;49.418;8.728;2022-12-10T10:52:35;28.77;;;16.33;;
23561;SDS011;11959;49.418;8.728;2022-12-10T10:55:02;27.60;;;16.40;;
23561;SDS011;11959;49.418;8.728;2022-12-10T10:57:32;30.85;;;17.08;;
23561;SDS011;11959;49.418;8.728;2022-12-10T11:00:03;28.00;;;15.85;;
23561;SDS011;11959;49.418;8.728;2022-12-10T11:02:35;28.55;;;17.02;;
23561;SDS011;11959;49.418;8.728;2022-12-10T11:07:57;29.98;;;16.48;;
23561;SDS011;11959;49.418;8.728;2022-12-10T11:10:26;27.38;;;15.75;;
23561;SDS011;11959;49.418;8.728;2022-12-10T11:13:36;31.27;;;17.58;;
23561;SDS011;11959;49.418;8.728;2022-12-10T11:15:54;30.15;;;16.75;;
23561;SDS011;11959;49.418;8.728;2022-12-10T11:18:57;26.42;;;15.23;;
23561;SDS011;11959;49.418;8.728;2022-12-10T11:21:29;26.17;;;15.90;;
23561;SDS011;11959;49.418;8.728;2022-12-10T11:23:56;27.23;;;16.42;;
23561;SDS011;11959;49.418;8.728;2022-12-10T11:26:30;29.77;;;16.77;;
23561;SDS011;11959;49.418;8.728;2022-12-10T11:34:56;29.38;;;16.20;;
23561;SDS011;11959;49.418;8.728;2022-12-10T11:37:35;26.75;;;15.68;;
23561;SDS011;11959;49.418;8.728;2022-12-10T11:40:30;23.52;;;14.20;;
23561;SDS011;11959;49.418;8.728;2022-12-10T11:50:57;15.82;;;10.07;;
23561;SDS011;11959;49.418;8.728;2022-12-10T11:59:28;15.95;;;9.73;;
23561;SDS011;11959;49.418;8.728;2022-12-10T12:11:12;8.75;;;6.07;;
23561;SDS011;11959;49.418;8.728;2022-12-10T12:18:47;9.57;;;5.80;;
23561;SDS011;11959;49.418;8.728;2022-12-10T12:21:26;11.00;;;6.63;;
23561;SDS011;11959;49.418;8.728;2022-12-10T12:26:38;12.20;;;6.55;;
23561;SDS011;11959;49.418;8.728;2022-12-10T12:31:57;12.43;;;6.78;;
23561;SDS011;11959;49.418;8.728;2022-12-10T12:37:20;10.68;;;6.70;;
23561;SDS011;11959;49.418;8.728;2022-12-10T12:39:55;11.57;;;6.22;;
23561;SDS011;11959;49.418;8.728;2022-12-10T12:47:41;9.80;;;6.28;;
23561;SDS011;11959;49.418;8.728;2022-12-10T12:50:22;11.48;;;6.78;;
23561;SDS011;11959;49.418;8.728;2022-12-10T12:52:58;10.23;;;6.80;;
23561;SDS011;11959;49.418;8.728;2022-12-10T12:58:10;9.32;;;6.28;;
23561;SDS011;11959;49.418;8.728;2022-12-10T13:00:49;10.60;;;6.55;;
23561;SDS011;11959;49.418;8.728;2022-12-10T13:03:29;10.20;;;6.53;;
23561;SDS011;11959;49.418;8.728;2022-12-10T13:08:46;8.82;;;5.68;;
23561;SDS011;11959;49.418;8.728;2022-12-10T13:11:35;9.90;;;6.03;;
23561;SDS011;11959;49.418;8.728;2022-12-10T13:27:22;9.88;;;6.47;;
23561;SDS011;11959;49.418;8.728;2022-12-10T13:46:34;10.35;;;6.43;;
23561;SDS011;11959;49.418;8.728;2022-12-10T13:49:30;10.68;;;6.70;;
23561;SDS011;11959;49.418;8.728;2022-12-10T13:52:07;10.43;;;6.32;;
23561;SDS011;11959;49.418;8.728;2022-12-10T14:00:18;13.13;;;8.15;;
23561;SDS011;11959;49.418;8.728;2022-12-10T14:08:47;11.90;;;7.70;;
23561;SDS011;11959;49.418;8.728;2022-12-10T14:11:31;13.00;;;7.70;;
23561;SDS011;11959;49.418;8.728;2022-12-10T14:14:00;14.18;;;9.40;;
23561;SDS011;11959;49.418;8.728;2022-12-10T14:16:28;21.27;;;13.18;;
23561;SDS011;11959;49.418;8.728;2022-12-10T14:18:59;23.75;;;14.25;;
23561;SDS011;11959;49.418;8.728;2022-12-10T14:21:35;23.77;;;14.13;;
23561;SDS011;11959;49.418;8.728;2022-12-10T14:24:04;22.48;;;13.82;;
23561;SDS011;11959;49.418;8.728;2022-12-10T14:26:31;20.75;;;13.25;;
23561;SDS011;11959;49.418;8.728;2022-12-10T14:31:32;22.38;;;13.13;;
23561;SDS011;11959;49.418;8.728;2022-12-10T14:34:04;22.40;;;13.25;;
23561;SDS011;11959;49.418;8.728;2022-12-10T14:36:32;20.58;;;13.27;;
23561;SDS011;11959;49.418;8.728;2022-12-10T14:39:02;19.33;;;12.13;;
23561;SDS011;11959;49.418;8.728;2022-12-10T14:41:29;22.75;;;12.73;;
23561;SDS011;11959;49.418;8.728;2022-12-10T14:43:57;23.77;;;13.80;;
23561;SDS011;11959;49.418;8.728;2022-12-10T14:46:29;21.70;;;11.80;;
23561;SDS011;11959;49.418;8.728;2022-12-10T14:48:56;18.42;;;11.90;;
23561;SDS011;11959;49.418;8.728;2022-12-10T14:51:24;20.88;;;12.05;;
23561;SDS011;11959;49.418;8.728;2022-12-10T14:53:52;20.83;;;11.98;;
23561;SDS011;11959;49.418;8.728;2022-12-10T14:56:35;20.27;;;12.48;;
23561;SDS011;11959;49.418;8.728;2022-12-10T15:01:47;21.02;;;12.57;;
23561;SDS011;11959;49.418;8.728;2022-12-10T15:04:18;21.33;;;12.43;;
23561;SDS011;11959;49.418;8.728;2022-12-10T15:06:44;17.17;;;10.55;;
23561;SDS011;11959;49.418;8.728;2022-12-10T15:09:15;19.88;;;11.38;;
23561;SDS011;11959;49.418;8.728;2022-12-10T15:11:43;15.60;;;9.73;;
23561;SDS011;11959;49.418;8.728;2022-12-10T15:14:14;15.13;;;10.07;;
23561;SDS011;11959;49.418;8.728;2022-12-10T15:16:45;16.42;;;10.13;;
23561;SDS011;11959;49.418;8.728;2022-12-10T15:21:47;18.58;;;11.82;;
23561;SDS011;11959;49.418;8.728;2022-12-10T15:24:27;23.80;;;14.05;;
23561;SDS011;11959;49.418;8.728;2022-12-10T15:27:00;19.00;;;11.70;;
23561;SDS011;11959;49.418;8.728;2022-12-10T15:31:55;21.33;;;13.45;;
23561;SDS011;11959;49.418;8.728;2022-12-10T15:34:25;22.45;;;13.27;;
23561;SDS011;11959;49.418;8.728;2022-12-10T15:36:54;23.05;;;13.45;;
23561;SDS011;11959;49.418;8.728;2022-12-10T15:39:28;21.35;;;12.75;;
23561;SDS011;11959;49.418;8.728;2022-12-10T15:41:57;21.08;;;13.00;;
23561;SDS011;11959;49.418;8.728;2022-12-10T15:49:41;22.95;;;12.10;;
23561;SDS011;11959;49.418;8.728;2022-12-10T15:52:10;22.77;;;12.95;;
23561;SDS011;11959;49.418;8.728;2022-12-10T15:54:49;24.45;;;12.32;;
23561;SDS011;11959;49.418;8.728;2022-12-10T15:59:49;22.95;;;13.30;;
23561;SDS011;11959;49.418;8.728;2022-12-10T16:07:36;20.17;;;12.38;;
23561;SDS011;11959;49.418;8.728;2022-12-10T16:10:02;22.70;;;13.38;;
23561;SDS011;11959;49.418;8.728;2022-12-10T16:12:28;22.38;;;13.05;;
23561;SDS011;11959;49.418;8.728;2022-12-10T16:14:54;21.65;;;12.95;;
23561;SDS011;11959;49.418;8.728;2022-12-10T16:17:24;23.10;;;13.25;;
23561;SDS011;11959;49.418;8.728;2022-12-10T16:19:51;25.33;;;14.10;;
23561;SDS011;11959;49.418;8.728;2022-12-10T16:22:18;22.85;;;13.23;;
23561;SDS011;11959;49.418;8.728;2022-12-10T16:24:44;22.02;;;12.63;;
23561;SDS011;11959;49.418;8.728;2022-12-10T16:27:13;47.78;;;26.50;;
23561;SDS011;11959;49.418;8.728;2022-12-10T16:29:40;34.15;;;17.23;;
23561;SDS011;11959;49.418;8.728;2022-12-10T16:32:08;26.67;;;14.40;;
23561;SDS011;11959;49.418;8.728;2022-12-10T16:34:35;23.58;;;13.85;;
23561;SDS011;11959;49.418;8.728;2022-12-10T16:37:01;24.17;;;13.63;;
23561;SDS011;11959;49.418;8.728;2022-12-10T16:39:27;23.70;;;12.75;;
23561;SDS011;11959;49.418;8.728;2022-12-10T16:41:53;28.35;;;15.40;;
23561;SDS011;11959;49.418;8.728;2022-12-10T16:44:19;25.38;;;14.13;;
23561;SDS011;11959;49.418;8.728;2022-12-10T16:46:45;23.25;;;14.73;;
23561;SDS011;11959;49.418;8.728;2022-12-10T16:49:11;26.35;;;14.88;;
23561;SDS011;11959;49.418;8.728;2022-12-10T16:51:37;28.08;;;14.90;;
23561;SDS011;11959;49.418;8.728;2022-12-10T16:54:04;26.40;;;14.35;;
23561;SDS011;11959;49.418;8.728;2022-12-10T16:56:30;26.48;;;15.27;;
23561;SDS011;11959;49.418;8.728;2022-12-10T16:58:56;25.90;;;14.98;;
23561;SDS011;11959;49.418;8.728;2022-12-10T17:01:24;23.90;;;13.70;;